createdAt,value
2018-06-10T00:01:42.444Z,18.94
2018-06-10T00:04:12.223Z,18.93
2018-06-10T00:06:42.039Z,18.93
2018-06-10T00:09:11.842Z,18.96
2018-06-10T00:11:41.633Z,18.88
2018-06-10T00:14:11.445Z,18.88
2018-06-10T00:16:41.208Z,18.86
2018-06-10T00:19:10.972Z,18.77
2018-06-10T00:21:40.747Z,18.69
2018-06-10T00:24:10.498Z,18.78
2018-06-10T00:26:40.363Z,18.70
2018-06-10T00:29:15.282Z,18.79
2018-06-10T00:31:45.059Z,18.85
2018-06-10T00:34:14.815Z,18.80
2018-06-10T00:36:44.582Z,18.74
2018-06-10T00:39:14.345Z,18.71
2018-06-10T00:41:44.178Z,18.68
2018-06-10T00:44:13.997Z,18.71
2018-06-10T00:46:43.766Z,18.72
2018-06-10T00:49:13.587Z,18.64
2018-06-10T00:51:43.331Z,18.56
2018-06-10T00:54:13.098Z,18.52
2018-06-10T00:56:53.843Z,18.43
2018-06-10T00:59:23.591Z,18.44
2018-06-10T01:01:53.369Z,18.45
2018-06-10T01:04:23.109Z,18.41
2018-06-10T01:06:52.959Z,18.34
2018-06-10T01:09:22.745Z,18.30
2018-06-10T01:11:52.592Z,18.34
2018-06-10T01:14:22.348Z,18.27
2018-06-10T01:16:52.145Z,18.23
2018-06-10T01:19:21.909Z,18.22
2018-06-10T01:21:51.660Z,18.24
2018-06-10T01:24:21.401Z,18.29
2018-06-10T01:26:52.226Z,18.31
2018-06-10T01:29:21.984Z,18.33
2018-06-10T01:31:51.751Z,18.33
2018-06-10T01:34:21.558Z,18.33
2018-06-10T01:36:51.292Z,18.35
2018-06-10T01:39:21.081Z,18.34
2018-06-10T01:41:50.855Z,18.38
2018-06-10T01:44:20.597Z,18.38
2018-06-10T01:46:50.371Z,18.38
2018-06-10T01:49:20.137Z,18.38
2018-06-10T01:51:49.872Z,18.37
2018-06-10T01:54:19.624Z,18.41
2018-06-10T01:56:49.413Z,18.42
2018-06-10T01:59:19.181Z,18.43
2018-06-10T02:01:48.952Z,18.45
2018-06-10T02:04:18.723Z,18.48
2018-06-10T02:06:48.522Z,18.51
2018-06-10T02:09:18.315Z,18.53
2018-06-10T02:11:48.169Z,18.53
2018-06-10T02:14:17.981Z,18.54
2018-06-10T02:16:47.705Z,18.55
2018-06-10T02:19:17.498Z,18.55
2018-06-10T02:21:47.308Z,18.56
2018-06-10T02:24:17.893Z,18.57
2018-06-10T02:26:47.644Z,18.58
2018-06-10T02:29:17.380Z,18.62
2018-06-10T02:31:47.143Z,18.59
2018-06-10T02:34:16.925Z,18.59
2018-06-10T02:36:46.707Z,18.56
2018-06-10T02:39:16.450Z,18.55
2018-06-10T02:41:46.269Z,18.55
2018-06-10T02:44:16.028Z,18.55
2018-06-10T02:46:45.802Z,18.54
2018-06-10T02:49:15.557Z,18.54
2018-06-10T02:51:45.287Z,18.53
2018-06-10T02:54:15.012Z,18.53
2018-06-10T02:56:44.779Z,18.55
2018-06-10T02:59:14.606Z,18.58
2018-06-10T03:01:44.380Z,18.61
2018-06-10T03:04:14.146Z,18.67
2018-06-10T03:06:43.878Z,18.71
2018-06-10T03:09:13.577Z,18.75
2018-06-10T03:11:43.362Z,18.78
2018-06-10T03:14:13.066Z,18.81
2018-06-10T03:16:42.819Z,18.84
2018-06-10T03:19:12.562Z,18.88
2018-06-10T03:21:42.385Z,18.95
2018-06-10T03:24:12.384Z,18.98
2018-06-10T03:26:42.142Z,19.03
2018-06-10T03:29:11.932Z,19.04
2018-06-10T03:31:41.722Z,19.10
2018-06-10T03:34:11.481Z,19.09
2018-06-10T03:36:41.245Z,19.10
2018-06-10T03:39:11.149Z,19.08
2018-06-10T03:41:40.901Z,19.05
2018-06-10T03:44:10.693Z,19.03
2018-06-10T03:46:40.525Z,19.09
2018-06-10T03:49:10.292Z,19.14
2018-06-10T03:51:40.105Z,19.13
2018-06-10T03:54:09.977Z,19.10
2018-06-10T03:56:39.709Z,19.15
2018-06-10T03:59:09.485Z,19.17
2018-06-10T04:01:39.788Z,19.19
2018-06-10T04:04:09.671Z,19.22
2018-06-10T04:06:39.394Z,19.30
2018-06-10T04:09:09.585Z,19.33
2018-06-10T04:11:39.341Z,19.40
2018-06-10T04:14:09.172Z,19.48
2018-06-10T04:16:39.020Z,19.55
2018-06-10T04:19:08.865Z,19.61
2018-06-10T04:21:38.688Z,19.69
2018-06-10T04:24:08.405Z,19.77
2018-06-10T04:26:38.261Z,19.85
2018-06-10T04:29:08.034Z,19.98
2018-06-10T04:31:37.887Z,19.99
2018-06-10T04:34:07.760Z,19.98
2018-06-10T04:36:37.568Z,20.02
2018-06-10T04:39:08.440Z,20.18
2018-06-10T04:41:38.260Z,20.38
2018-06-10T04:44:07.987Z,20.61
2018-06-10T04:46:37.849Z,20.79
2018-06-10T04:49:07.603Z,21.03
2018-06-10T04:51:37.400Z,21.21
2018-06-10T04:54:07.256Z,21.25
2018-06-10T04:56:37.096Z,21.35
2018-06-10T04:59:06.893Z,21.38
2018-06-10T05:01:36.711Z,21.63
2018-06-10T05:04:06.443Z,22.02
2018-06-10T05:06:36.236Z,22.25
2018-06-10T05:09:07.618Z,22.31
2018-06-10T05:11:37.394Z,22.23
2018-06-10T05:14:07.184Z,22.43
2018-06-10T05:16:36.952Z,22.61
2018-06-10T05:19:06.936Z,22.58
2018-06-10T05:21:36.742Z,22.64
2018-06-10T05:24:06.576Z,22.75
2018-06-10T05:26:36.405Z,22.78
2018-06-10T05:29:06.427Z,22.86
2018-06-10T05:31:36.226Z,22.41
2018-06-10T05:34:06.252Z,22.29
2018-06-10T05:36:36.024Z,22.39
2018-06-10T05:39:09.224Z,22.54
2018-06-10T05:41:39.027Z,22.48
2018-06-10T05:44:08.806Z,22.51
2018-06-10T05:46:38.625Z,22.56
2018-06-10T05:49:08.396Z,22.62
2018-06-10T05:51:38.229Z,22.51
2018-06-10T05:54:07.964Z,22.32
2018-06-10T05:56:37.790Z,22.34
2018-06-10T05:59:07.565Z,22.29
2018-06-10T06:01:37.349Z,22.45
2018-06-10T06:04:07.204Z,22.47
2018-06-10T06:06:36.957Z,22.72
2018-06-10T06:09:08.532Z,22.78
2018-06-10T06:11:38.494Z,22.68
2018-06-10T06:14:08.426Z,22.75
2018-06-10T06:16:38.286Z,22.88
2018-06-10T06:19:08.080Z,23.06
2018-06-10T06:21:39.106Z,23.06
2018-06-10T06:24:09.329Z,22.97
2018-06-10T06:26:39.161Z,23.09
2018-06-10T06:29:08.892Z,22.81
2018-06-10T06:31:38.800Z,22.94
2018-06-10T06:34:08.698Z,23.28
2018-06-10T06:36:38.595Z,23.39
2018-06-10T06:39:09.046Z,23.56
2018-06-10T06:41:38.969Z,23.71
2018-06-10T06:44:08.840Z,23.75
2018-06-10T06:46:39.287Z,23.39
2018-06-10T06:49:09.100Z,23.46
2018-06-10T06:51:38.907Z,23.32
2018-06-10T06:54:08.723Z,23.14
2018-06-10T06:56:38.580Z,23.73
2018-06-10T06:59:08.406Z,23.87
2018-06-10T07:01:39.051Z,24.01
2018-06-10T07:04:09.370Z,23.93
2018-06-10T07:06:39.315Z,24.34
2018-06-10T07:09:09.460Z,24.72
2018-06-10T07:11:39.468Z,24.81
2018-06-10T07:14:10.372Z,24.86
2018-06-10T07:16:41.209Z,25.08
2018-06-10T07:19:11.154Z,24.55
2018-06-10T07:21:41.076Z,24.73
2018-06-10T07:24:11.151Z,24.91
2018-06-10T07:26:41.071Z,25.46
2018-06-10T07:29:10.818Z,25.81
2018-06-10T07:31:40.671Z,25.63
2018-06-10T07:34:10.469Z,25.96
2018-06-10T07:36:40.269Z,26.04
2018-06-10T07:39:10.092Z,25.60
2018-06-10T07:41:39.947Z,25.76
2018-06-10T07:44:09.748Z,25.93
2018-06-10T07:46:39.764Z,25.81
2018-06-10T07:49:09.562Z,26.16
2018-06-10T07:51:39.374Z,26.48
2018-06-10T07:54:09.145Z,26.96
2018-06-10T07:56:38.875Z,26.37
2018-06-10T07:59:08.704Z,27.00
2018-06-10T08:01:38.453Z,27.29
2018-06-10T08:04:08.237Z,27.56
2018-06-10T08:06:37.937Z,26.98
2018-06-10T08:09:11.199Z,27.32
2018-06-10T08:11:40.963Z,27.83
2018-06-10T08:14:10.766Z,28.01
2018-06-10T08:16:40.564Z,28.05
2018-06-10T08:19:10.365Z,28.07
2018-06-10T08:21:40.151Z,28.19
2018-06-10T08:24:09.946Z,28.09
2018-06-10T08:26:41.975Z,27.53
2018-06-10T08:29:11.747Z,28.33
2018-06-10T08:31:41.651Z,28.34
2018-06-10T08:34:11.417Z,28.48
2018-06-10T08:36:41.187Z,29.09
2018-06-10T08:39:11.015Z,29.18
2018-06-10T08:41:40.785Z,29.02
2018-06-10T08:44:10.631Z,29.19
2018-06-10T08:46:40.371Z,29.00
2018-06-10T08:49:10.146Z,28.34
2018-06-10T08:51:43.296Z,28.69
2018-06-10T08:54:13.141Z,29.52
2018-06-10T08:56:42.899Z,29.70
2018-06-10T08:59:12.582Z,29.48
2018-06-10T09:01:42.400Z,30.16
2018-06-10T09:04:12.163Z,30.32
2018-06-10T09:06:41.927Z,30.60
2018-06-10T09:09:11.717Z,31.16
2018-06-10T09:11:41.901Z,31.47
2018-06-10T09:14:11.694Z,31.60
2018-06-10T09:16:41.509Z,31.75
2018-06-10T09:19:11.314Z,31.76
2018-06-10T09:21:41.045Z,31.61
2018-06-10T09:24:10.841Z,31.67
2018-06-10T09:26:40.652Z,31.77
2018-06-10T09:29:10.438Z,31.79
2018-06-10T09:31:40.241Z,31.58
2018-06-10T09:34:10.081Z,31.30
2018-06-10T09:36:39.844Z,30.86
2018-06-10T09:39:10.845Z,30.87
2018-06-10T09:41:40.788Z,30.53
2018-06-10T09:44:10.559Z,30.26
2018-06-10T09:46:40.653Z,30.59
2018-06-10T09:49:10.429Z,30.61
2018-06-10T09:51:40.153Z,30.58
2018-06-10T09:54:09.887Z,30.47
2018-06-10T09:56:39.671Z,30.26
2018-06-10T09:59:09.785Z,30.23
2018-06-10T10:01:40.140Z,30.45
2018-06-10T10:04:09.979Z,30.50
2018-06-10T10:06:39.894Z,30.71
2018-06-10T10:09:09.937Z,30.48
2018-06-10T10:11:40.734Z,30.97
2018-06-10T10:14:10.626Z,31.10
2018-06-10T10:16:40.435Z,31.43
2018-06-10T10:19:10.235Z,32.00
2018-06-10T10:21:39.981Z,31.85
2018-06-10T10:24:09.943Z,31.85
2018-06-10T10:26:41.849Z,31.47
2018-06-10T10:29:12.923Z,31.06
2018-06-10T10:31:42.743Z,31.01
2018-06-10T10:34:12.519Z,31.20
2018-06-10T10:36:42.349Z,31.16
2018-06-10T10:39:12.163Z,30.56
2018-06-10T10:41:41.939Z,29.80
2018-06-10T10:44:11.870Z,29.71
2018-06-10T10:46:41.669Z,29.83
2018-06-10T10:49:11.617Z,29.78
2018-06-10T10:51:41.534Z,29.91
2018-06-10T10:54:12.391Z,29.57
2018-06-10T10:56:42.228Z,29.71
2018-06-10T10:59:12.102Z,29.75
2018-06-10T11:01:41.937Z,29.52
2018-06-10T11:04:12.047Z,29.14
2018-06-10T11:06:42.598Z,29.17
2018-06-10T11:09:12.426Z,29.11
2018-06-10T11:11:42.733Z,29.11
2018-06-10T11:14:12.734Z,29.33
2018-06-10T11:16:43.413Z,29.53
2018-06-10T11:19:13.394Z,29.35
2018-06-10T11:21:43.273Z,29.37
2018-06-10T11:24:14.708Z,29.41
2018-06-10T11:26:49.605Z,29.17
2018-06-10T11:29:19.601Z,29.25
2018-06-10T11:31:49.684Z,29.26
2018-06-10T11:34:19.765Z,29.43
2018-06-10T11:36:49.661Z,29.62
2018-06-10T11:39:19.485Z,29.74
2018-06-10T11:41:49.385Z,29.74
2018-06-10T11:44:19.453Z,29.91
2018-06-10T11:46:49.940Z,29.77
2018-06-10T11:49:28.796Z,29.72
2018-06-10T11:52:04.686Z,29.84
2018-06-10T11:54:34.918Z,29.75
2018-06-10T11:57:06.059Z,29.73
2018-06-10T11:59:36.320Z,29.74
2018-06-10T12:02:06.591Z,29.82
2018-06-10T12:04:36.776Z,29.72
2018-06-10T12:07:06.572Z,29.74
2018-06-10T12:09:37.884Z,29.73
2018-06-10T12:12:07.954Z,29.73
2018-06-10T12:14:37.942Z,29.72
2018-06-10T12:17:08.125Z,29.60
2018-06-10T12:22:34.691Z,29.68
2018-06-10T12:25:17.547Z,29.55
2018-06-10T12:27:55.531Z,29.55
2018-06-10T12:30:25.390Z,29.78
2018-06-10T12:32:55.278Z,29.87
2018-06-10T12:35:30.766Z,29.79
2018-06-10T12:38:01.669Z,29.71
2018-06-10T12:40:32.956Z,29.74
2018-06-10T12:43:03.509Z,29.78
2018-06-10T12:45:38.120Z,29.82
2018-06-10T12:48:09.788Z,29.83
2018-06-10T12:50:39.726Z,29.94
2018-06-10T12:53:09.617Z,30.01
2018-06-10T12:55:42.231Z,30.13
2018-06-10T12:58:15.477Z,30.45
2018-06-10T13:00:45.832Z,30.69
2018-06-10T13:03:16.785Z,30.56
2018-06-10T13:05:46.625Z,29.80
2018-06-10T13:08:19.433Z,29.95
2018-06-10T13:10:49.453Z,30.28
2018-06-10T13:13:19.381Z,30.67
2018-06-10T13:15:50.038Z,30.88
2018-06-10T13:18:20.001Z,31.40
2018-06-10T13:20:50.421Z,31.48
2018-06-10T13:23:20.445Z,31.34
2018-06-10T18:03:20.427Z,19.89
2018-06-10T18:05:57.856Z,19.73
2018-06-10T18:08:36.317Z,19.69
2018-06-10T18:11:19.448Z,19.74
2018-06-10T18:13:55.601Z,19.57
2018-06-10T18:16:37.115Z,19.44
2018-06-10T18:19:10.066Z,19.48
2018-06-10T18:21:45.648Z,19.57
2018-06-10T18:24:18.629Z,19.65
2018-06-10T18:26:54.468Z,19.70
2018-06-10T18:29:26.734Z,19.66
2018-06-10T18:32:10.299Z,19.65
2018-06-10T18:34:53.200Z,19.69
2018-06-10T18:37:46.851Z,19.68
2018-06-10T18:40:36.758Z,19.71
2018-06-10T18:46:24.072Z,19.88
2018-06-10T18:48:59.170Z,19.92
2018-06-10T18:51:43.278Z,20.03
2018-06-10T18:54:24.290Z,20.10
2018-06-10T18:57:01.060Z,20.30
2018-06-10T18:59:37.816Z,20.45
2018-06-10T19:02:27.202Z,20.54
2018-06-10T19:09:30.698Z,20.48
2018-06-10T19:12:12.147Z,20.39
2018-06-10T19:14:46.205Z,20.29
2018-06-10T19:17:21.741Z,20.26
2018-06-10T19:19:57.888Z,20.20
2018-06-10T19:22:35.991Z,20.13
2018-06-10T19:25:10.094Z,20.05
2018-06-10T19:32:43.662Z,19.93
2018-06-10T19:35:27.817Z,19.66
2018-06-10T19:38:11.162Z,19.61
2018-06-10T19:40:50.353Z,19.56
2018-06-10T19:43:30.949Z,19.43
2018-06-10T19:46:03.824Z,19.32
2018-06-10T19:48:36.294Z,19.25
2018-06-10T19:51:09.512Z,19.21
2018-06-10T19:53:43.997Z,19.18
2018-06-10T19:56:18.668Z,19.13
2018-06-10T19:58:51.094Z,19.11
2018-06-10T20:01:25.408Z,19.05
